x

Isle Of Shoals, Nh (iosn3) Weather Station

6:00pm - Mon 22nd May 2017 All times are EDT. -4 hours from GMT.

  • Wind
    17mph, 17mph gusts
  • 空気 Temp 48°f
  • Sea Pressure 1017.9mb
  • Isle Of Shoals, Nh
  • Isle Of Shoals, Nh

More Historic Weather Station data

Upgrade to MSW Pro to gain access to the past 30 days of data for over 8000 Wavebouys and Weather Stations around the globe.

Join Pro

Comparision Forecast

View Surf forecast
   
Mon 05/22 6:00pm 17 17 mph 1017.9mb 48f
5:00pm 20 21 mph 1018.6mb 48f
4:00pm 22 24 mph 1019.3mb 49f
3:00pm 18 20 mph 1020mb 48f
2:00pm 23 24 mph 1020.7mb 51f
1:00pm 24 25 mph 1020.8mb 51f
12:00pm 16 17 mph 1021.8mb 52f
11:00am 11 13 mph 1022.2mb 53f
10:00am 7 8 mph 1022.7mb 52f
9:00am 3 3 mph 1022.8mb 51f
8:00am  -  1 mph 1023.3mb 51f
7:00am 6 6 mph 1023.4mb 52f
6:00am 8 8 mph 1022.8mb 53f
5:00am 7 8 mph 1022.8mb 52f
4:00am 11 13 mph 1022.8mb 55f
3:00am 14 15 mph 1022.4mb 55f
2:00am 15 15 mph 1023mb 56f
1:00am 13 13 mph 1023.6mb 56f
12:00am 15 15 mph 1023.7mb 56f
Sun 05/21 11:00pm 20 21 mph 1023.8mb 56f
10:00pm 16 16 mph 1024.7mb 55f
9:00pm 7 7 mph 1025.3mb 55f
8:00pm 10 11 mph 1025mb 55f
7:00pm 15 16 mph 1025.2mb 54f
6:00pm 16 17 mph 1025.3mb 54f
5:00pm 16 17 mph 1025.5mb 54f
4:00pm 14 15 mph 1026mb 54f
3:00pm 15 16 mph 1026.7mb 54f
2:00pm 11 13 mph 1027.7mb 54f
1:00pm 7 8 mph 1028.5mb 54f
12:00pm 5 6 mph 1028.8mb 53f
11:00am 5 6 mph 1029.8mb 52f
10:00am 7 8 mph 1029.7mb 52f
9:00am 9 10 mph 1029.6mb 52f
8:00am 11 13 mph 1029.5mb 52f
7:00am 16 17 mph 1029mb 52f
6:00am 14 16 mph 1028.6mb 51f
5:00am 15 17 mph 1028.1mb 52f
4:00am 14 15 mph 1027.7mb 51f
3:00am 14 15 mph 1027mb 51f
2:00am 16 18 mph 1026.8mb 52f
1:00am 5 6 mph 1027mb 53f
12:00am 5 5 mph 1027mb 53f
Sat 05/20 11:00pm 11 11 mph 1026.6mb 54f
10:00pm 15 15 mph 1026.1mb 54f
9:00pm 15 15 mph 1025.6mb 55f
8:00pm 13 13 mph 1024.9mb 54f
7:00pm 15 16 mph 1024.9mb 53f
6:00pm 16 17 mph 1024.7mb 52f
5:00pm 13 14 mph 1024.9mb 52f
4:00pm 11 11 mph 1024.9mb 52f
3:00pm 10 10 mph 1025.2mb 51f
2:00pm 11 11 mph 1025.4mb 51f
1:00pm 13 14 mph 1025.2mb 51f
12:00pm 13 14 mph 1025.3mb 51f
11:00am 16 16 mph 1025.3mb 51f
10:00am 15 17 mph 1025.3mb 52f
9:00am 13 14 mph 1025.6mb 52f
8:00am 20 22 mph 1024.6mb 52f
7:00am 14 15 mph 1024mb 51f
6:00am 13 14 mph 1023mb 52f
5:00am 13 15 mph 1021.8mb 52f
4:00am 14 16 mph 1020.7mb 53f
3:00am 15 16 mph 1019.6mb 53f
2:00am 11 13 mph 1019.8mb 53f
1:00am 13 15 mph 1019.3mb 55f
12:00am 10 11 mph 1018.7mb 57f
Fri 05/19 11:00pm 16 17 mph 1017.4mb 57f
10:00pm 30 32 mph 1015.4mb 58f
9:00pm 21 22 mph 1014.6mb 60f
8:00pm 31 34 mph 1012.4mb 64f
7:00pm 28 31 mph 1011.3mb 67f
6:00pm 25 26 mph 1009.9mb 68f
5:00pm 25 26 mph 1009.3mb 71f
4:00pm 22 25 mph 1008.1mb 76f
3:00pm 16 22 mph 1007.2mb 78f
2:00pm 26 29 mph 1006.5mb 82f
1:00pm 24 29 mph 1006.8mb 81f
12:00pm 22 23 mph 1006.8mb 79f
11:00am 32 37 mph 1006.7mb 78f
10:00am 23 26 mph 1007.5mb 77f
9:00am 16 17 mph 1007.9mb 70f
8:00am 20 21 mph 1007.7mb 72f
7:00am 20 21 mph 1007.7mb 69f
6:00am 18 20 mph 1007.2mb 67f
5:00am 17 18 mph 1006.4mb 68f
4:00am 25 25 mph 1006mb 70f
3:00am 24 24 mph 1006.4mb 71f
2:00am 24 25 mph 1006.8mb 72f
1:00am 32 32 mph 1006.8mb 73f
12:00am 39 45 mph 1007.6mb 70f